| Date | Time | Temp. (oF) | Dew Point (oF) | Rel. Hum. (%) | Press. (in.) | Wind Dir. | Wind Speed (mph) | Hourly Rainfall (in.) |
|
|---|---|---|---|---|---|---|---|---|---|
| 1 | 03/12 | 00:00 | 34 | 32 | 95 | 29.45 | W | 7 | 0.00 |
| 2 | 03/11 | 23:00 | 34 | 32 | 94 | 29.46 | NW | 3 | 0.00 |
| 3 | 03/11 | 22:00 | 36 | 33 | 90 | 29.46 | NNW | 9 | 0.00 |
| 4 | 03/11 | 21:00 | 38 | 33 | 85 | 29.43 | NW | 0 | 0.00 |
| 5 | 03/11 | 20:00 | 39 | 34 | 83 | 29.42 | NNW | 1 | 0.00 |
| 6 | 03/11 | 19:00 | 40 | 34 | 79 | 29.41 | E | 1 | 0.00 |
| 7 | 03/11 | 18:00 | 42 | 33 | 72 | 29.42 | NNW | 4 | 0.00 |
| 8 | 03/11 | 17:00 | 44 | 33 | 67 | 29.40 | NW | 2 | 0.00 |
| 9 | 03/11 | 16:00 | 46 | 34 | 64 | 29.41 | SW | 2 | 0.00 |
| 10 | 03/11 | 15:00 | 45 | 33 | 64 | 29.41 | W | 1 | 0.00 |
| 11 | 03/11 | 14:00 | 47 | 33 | 59 | 29.42 | SSE | 2 | 0.00 |
| 12 | 03/11 | 13:00 | 44 | 31 | 61 | 29.46 | WSW | 6 | 0.00 |
| 13 | 03/11 | 12:00 | 43 | 30 | 62 | 29.48 | SSE | 4 | 0.00 |
| 14 | 03/11 | 11:00 | 41 | 31 | 70 | 29.52 | S | 6 | 0.00 |
| 15 | 03/11 | 10:00 | 34 | 29 | 84 | 29.54 | SE | 4 | 0.00 |
| 16 | 03/11 | 09:00 | 31 | 27 | 86 | 29.57 | S | 3 | 0.00 |
| 17 | 03/11 | 08:00 | 30 | 26 | 85 | 29.58 | ESE | 7 | 0.00 |
| 18 | 03/11 | 07:00 | 29 | 25 | 86 | 29.61 | ESE | 6 | 0.00 |
| 19 | 03/11 | 06:00 | 29 | 25 | 85 | 29.63 | SE | 2 | 0.00 |
| 20 | 03/11 | 05:00 | 28 | 23 | 83 | 29.64 | E | 2 | 0.00 |
| 21 | 03/11 | 04:00 | 28 | 22 | 80 | 29.65 | E | 5 | 0.00 |
| 22 | 03/11 | 03:00 | 28 | 20 | 74 | 29.68 | E | 3 | 0.00 |
| 23 | 03/11 | 02:00 | 28 | 19 | 70 | 29.71 | ESE | 3 | 0.00 |
| 24 | 03/11 | 01:00 | 27 | 17 | 67 | 29.75 | SE | 2 | 0.00 |